Archival Weather

Sydney Intl

Sydney, Australia (YSSY)

Report from: Friday, September 22, 2023 5:00 AM AEST
Current time: Sunday, February 25, 2024 3:21 AM AEDT

Current weather – Weather history – Daily summaries
Weather forecast

Present weatherLight rain showers
Temperature12.0°C (53.6°F)
Dew point10.0°C (50.0°F)
Winds 11 kts (5.7 m/s, 12.7 mph) Vrb
Winds variableWinds variable from South (180°) to West-Southwest (240°)
Visibility6.2 mi. (10 km)
Clouds Scattered clouds 5,500 ft. (1,676 m)
Ceiling: Broken clouds 6,700 ft. (2,042 m)
Broken clouds 8,900 ft. (2,713 m)
Altimeter30.33 in.Hg (1027 mB)
Relative humidity88 %
Density altitude-647 ft. (-197 m)
Remarks Fully automated report
Flight conditions Visual Meteorological Conditions
Raw dataYSSY 211900Z AUTO 23011KT 180V240 9999 -SHRA SCT055 BKN067 BKN089 12/10 Q1027 RESHRA
An error has occurred. This application may no longer respond until reloaded. Reload 🗙